Terminal Aerodrome Forecast
Issued by NWS

Home | Current Version | Previous Version | Graphics & Text | Print | Product List | Glossary On
Versions: 1 2 3 4 5 6 7 8 9 10 11 12 13 14 15 16 17 18 19
000
FTUS43 KMPX 090357 AAB
TAFRNH
TAF AMD
KRNH 090357Z 0904/0924 31013G20KT P6SM -SHSN BKN028
     FM090900 34015G24KT P6SM BKN035 BKN050
     FM091800 32009KT P6SM BKN060
     FM092000 31009KT P6SM SCT080
     FM092300 27006KT P6SM SCT130=

USA.gov is the U.S. government's official web portal to all federal, state and local government web resources and services.